Orange8 — JL6278 — position and weather

sailwx.info

Track history (hours):
 
Tides and Currents Weather Stations Pressure Air Temp Water Temp Dewpoint Dewpoint Depression Visibility Wind Speed Wind Dir Waves Ship Positions

Orange8

Last reported at 2014-Nov-26 07:25 UTC. Time now 2014-Nov-26 07:48 UTC.
Position N 34°37' E 135°26'.

Length 164 m; draft 5 m.

Type: Passenger vessel. MMSI: 431501603.

Date/timePositionNaut miles runAvg speedWind from/ knotsBaromVisibWave heightAir tempDewpointWater temp
2014-Nov-26 07:25N 34°37' E 135°26'0 0.0
2014-Nov-26 06:31N 34°37' E 135°26'0 0.0
2014-Nov-26 05:19N 34°37' E 135°26'0 0.0
2014-Nov-26 04:31N 34°37' E 135°26'0 0.0
2014-Nov-26 03:31N 34°37' E 135°26'0 0.0
2014-Nov-26 02:31N 34°37' E 135°26'0 0.0
2014-Nov-26 01:31N 34°37' E 135°26'0 0.0
2014-Nov-26 00:31N 34°37' E 135°26'0 0.0
2014-Nov-25 23:31N 34°37' E 135°26'0 0.0
2014-Nov-25 22:31N 34°37' E 135°26'0 0.0
2014-Nov-25 21:31N 34°37' E 135°26'6 5.9
2014-Nov-25 20:33N 34°36' E 135°19'1817.7
2014-Nov-25 19:33N 34°37' E 134°58'1 0.1
2014-Nov-24 14:33N 34°36' E 134°56'1918.9
2014-Nov-24 13:33N 34°37' E 135°19'6 4.3
2014-Nov-24 12:12N 34°37' E 135°26'0 0.0
2014-Nov-24 11:30N 34°37' E 135°26'0 0.0
2014-Nov-24 10:24N 34°37' E 135°26'0 0.0
2014-Nov-24 09:30N 34°37' E 135°26'0 0.0
2014-Nov-24 08:24N 34°37' E 135°26'0 0.0
2014-Nov-24 07:30N 34°37' E 135°26'0 0.0
2014-Nov-24 06:30N 34°37' E 135°26'0 0.0
2014-Nov-24 05:30N 34°37' E 135°26'0 0.0
2014-Nov-24 04:24N 34°37' E 135°26'0 0.0
2014-Nov-24 02:30N 34°37' E 135°26'0 0.0
2014-Nov-24 01:18N 34°37' E 135°26'0 0.0
2014-Nov-24 00:18N 34°37' E 135°26'0 0.0
2014-Nov-23 23:30N 34°37' E 135°26'0 0.0
2014-Nov-23 22:06N 34°37' E 135°26'0 0.0
2014-Nov-23 21:18N 34°37' E 135°26'6 8.0
2014-Nov-23 20:33N 34°36' E 135°19'1817.6
2014-Nov-23 19:33N 34°37' E 134°58'0 0.0
2014-Nov-22 14:33N 34°37' E 134°58'1818.0
2014-Nov-22 13:33N 34°37' E 135°19'5 2.4
2014-Nov-22 11:19N 34°37' E 135°26'0 0.0
2014-Nov-22 10:13N 34°37' E 135°26'0 0.0
2014-Nov-22 09:25N 34°37' E 135°26'0 0.0
2014-Nov-22 08:31N 34°37' E 135°26'0 0.0
2014-Nov-22 07:31N 34°37' E 135°26'0 0.0
2014-Nov-22 06:31N 34°37' E 135°26'0 0.0
2014-Nov-22 05:31N 34°37' E 135°26'0 0.0
2014-Nov-22 04:19N 34°37' E 135°26'0 0.0
2014-Nov-22 03:25N 34°37' E 135°26'0 0.0
2014-Nov-22 02:31N 34°37' E 135°26'0 0.0
2014-Nov-22 01:31N 34°37' E 135°26'0 0.0
2014-Nov-22 00:28N 34°37' E 135°26'0 0.0
2014-Nov-21 23:16N 34°37' E 135°26'0 0.0
2014-Nov-21 22:16N 34°37' E 135°26'0 0.0
2014-Nov-21 21:28N 34°37' E 135°26'7 7.4
2014-Nov-21 20:33N 34°36' E 135°18'1717.3
2014-Nov-21 19:33N 34°36' E 134°57'1 0.0
2014-Nov-20 14:33N 34°37' E 134°57'1717.5
2014-Nov-20 13:33N 34°37' E 135°18'7 3.1
2014-Nov-20 11:28N 34°37' E 135°26'0 0.0
2014-Nov-20 10:28N 34°37' E 135°26'0 0.0
2014-Nov-20 09:28N 34°37' E 135°26'0 0.0
2014-Nov-20 08:22N 34°37' E 135°26'0 0.0
2014-Nov-20 07:28N 34°37' E 135°26'0 0.0
2014-Nov-20 06:28N 34°37' E 135°26'0 0.0
2014-Nov-20 05:28N 34°37' E 135°26'0 0.0
2014-Nov-20 04:22N 34°37' E 135°26'0 0.0
2014-Nov-20 03:28N 34°37' E 135°26'0 0.0
2014-Nov-20 02:10N 34°37' E 135°26'0 0.0
2014-Nov-20 01:16N 34°37' E 135°26'0 0.0
2014-Nov-20 00:28N 34°37' E 135°26'0 0.0
2014-Nov-19 23:28N 34°37' E 135°26'0 0.0
2014-Nov-19 22:10N 34°37' E 135°26'0 0.0
2014-Nov-19 21:16N 34°37' E 135°26'5 7.7
2014-Nov-19 20:33N 34°36' E 135°19'1717.5
2014-Nov-19 19:33N 34°37' E 134°58'1 0.0
2014-Nov-18 14:33N 34°38' E 134°59'1716.7
2014-Nov-18 13:33N 34°37' E 135°19'5 2.4
2014-Nov-18 11:18N 34°37' E 135°26'0 0.0
2014-Nov-18 10:30N 34°37' E 135°26'0 0.0
2014-Nov-18 07:24N 34°37' E 135°26'0 0.0
2014-Nov-18 06:30N 34°37' E 135°26'0 0.0
2014-Nov-18 05:30N 34°37' E 135°26'0 0.0
2014-Nov-18 04:30N 34°37' E 135°26'0 0.0
2014-Nov-18 03:30N 34°37' E 135°26'0 0.0
2014-Nov-18 02:30N 34°37' E 135°26'0 0.0
2014-Nov-18 01:30N 34°37' E 135°26'0 0.0
2014-Nov-18 00:30N 34°37' E 135°26'0 0.0
2014-Nov-17 23:24N 34°37' E 135°26'0 0.0
2014-Nov-17 22:24N 34°37' E 135°26'0 0.0
2014-Nov-17 21:30N 34°37' E 135°26'8 8.0
2014-Nov-17 20:33N 34°36' E 135°17'1717.5
2014-Nov-17 19:33N 34°36' E 134°56'2 0.1
2014-Nov-16 14:33N 34°37' E 134°58'1717.4
2014-Nov-16 13:33N 34°36' E 135°19'6 5.6
2014-Nov-16 12:30N 34°37' E 135°26'0 0.0
2014-Nov-16 11:30N 34°37' E 135°26'0 0.0
2014-Nov-16 10:30N 34°37' E 135°26'0 0.0
2014-Nov-16 09:30N 34°37' E 135°26'0 0.0
2014-Nov-16 08:24N 34°37' E 135°26'  
Track history (hours):
 
Tides and Currents Weather Stations Pressure Air Temp Water Temp Dewpoint Dewpoint Depression Visibility Wind Speed Wind Dir Waves Ship Positions

Orange8

Last reported at 2014-Nov-26 07:25 UTC. Time now 2014-Nov-26 07:48 UTC.
Position N 34°37' E 135°26'.

Length 164 m; draft 5 m.

Type: Passenger vessel. MMSI: 431501603.

Date/timePositionNaut miles runAvg speedWind from/ knotsBaromVisibWave heightAir tempDewpointWater temp
2014-Nov-26 07:25N 34°37' E 135°26'0 0.0
2014-Nov-26 06:31N 34°37' E 135°26'0 0.0
2014-Nov-26 05:19N 34°37' E 135°26'0 0.0
2014-Nov-26 04:31N 34°37' E 135°26'0 0.0
2014-Nov-26 03:31N 34°37' E 135°26'0 0.0
2014-Nov-26 02:31N 34°37' E 135°26'0 0.0
2014-Nov-26 01:31N 34°37' E 135°26'0 0.0
2014-Nov-26 00:31N 34°37' E 135°26'0 0.0
2014-Nov-25 23:31N 34°37' E 135°26'0 0.0
2014-Nov-25 22:31N 34°37' E 135°26'0 0.0
2014-Nov-25 21:31N 34°37' E 135°26'6 5.9
2014-Nov-25 20:33N 34°36' E 135°19'1817.7
2014-Nov-25 19:33N 34°37' E 134°58'1 0.1
2014-Nov-24 14:33N 34°36' E 134°56'1918.9
2014-Nov-24 13:33N 34°37' E 135°19'6 4.3
2014-Nov-24 12:12N 34°37' E 135°26'0 0.0
2014-Nov-24 11:30N 34°37' E 135°26'0 0.0
2014-Nov-24 10:24N 34°37' E 135°26'0 0.0
2014-Nov-24 09:30N 34°37' E 135°26'0 0.0
2014-Nov-24 08:24N 34°37' E 135°26'0 0.0
2014-Nov-24 07:30N 34°37' E 135°26'0 0.0
2014-Nov-24 06:30N 34°37' E 135°26'0 0.0
2014-Nov-24 05:30N 34°37' E 135°26'0 0.0
2014-Nov-24 04:24N 34°37' E 135°26'0 0.0
2014-Nov-24 02:30N 34°37' E 135°26'0 0.0
2014-Nov-24 01:18N 34°37' E 135°26'0 0.0
2014-Nov-24 00:18N 34°37' E 135°26'0 0.0
2014-Nov-23 23:30N 34°37' E 135°26'0 0.0
2014-Nov-23 22:06N 34°37' E 135°26'0 0.0
2014-Nov-23 21:18N 34°37' E 135°26'6 8.0
2014-Nov-23 20:33N 34°36' E 135°19'1817.6
2014-Nov-23 19:33N 34°37' E 134°58'0 0.0
2014-Nov-22 14:33N 34°37' E 134°58'1818.0
2014-Nov-22 13:33N 34°37' E 135°19'5 2.4
2014-Nov-22 11:19N 34°37' E 135°26'0 0.0
2014-Nov-22 10:13N 34°37' E 135°26'0 0.0
2014-Nov-22 09:25N 34°37' E 135°26'0 0.0
2014-Nov-22 08:31N 34°37' E 135°26'0 0.0
2014-Nov-22 07:31N 34°37' E 135°26'0 0.0
2014-Nov-22 06:31N 34°37' E 135°26'0 0.0
2014-Nov-22 05:31N 34°37' E 135°26'0 0.0
2014-Nov-22 04:19N 34°37' E 135°26'0 0.0
2014-Nov-22 03:25N 34°37' E 135°26'0 0.0
2014-Nov-22 02:31N 34°37' E 135°26'0 0.0
2014-Nov-22 01:31N 34°37' E 135°26'0 0.0
2014-Nov-22 00:28N 34°37' E 135°26'0 0.0
2014-Nov-21 23:16N 34°37' E 135°26'0 0.0
2014-Nov-21 22:16N 34°37' E 135°26'0 0.0
2014-Nov-21 21:28N 34°37' E 135°26'7 7.4
2014-Nov-21 20:33N 34°36' E 135°18'1717.3
2014-Nov-21 19:33N 34°36' E 134°57'1 0.0
2014-Nov-20 14:33N 34°37' E 134°57'1717.5
2014-Nov-20 13:33N 34°37' E 135°18'7 3.1
2014-Nov-20 11:28N 34°37' E 135°26'0 0.0
2014-Nov-20 10:28N 34°37' E 135°26'0 0.0
2014-Nov-20 09:28N 34°37' E 135°26'0 0.0
2014-Nov-20 08:22N 34°37' E 135°26'0 0.0
2014-Nov-20 07:28N 34°37' E 135°26'0 0.0
2014-Nov-20 06:28N 34°37' E 135°26'0 0.0
2014-Nov-20 05:28N 34°37' E 135°26'0 0.0
2014-Nov-20 04:22N 34°37' E 135°26'0 0.0
2014-Nov-20 03:28N 34°37' E 135°26'0 0.0
2014-Nov-20 02:10N 34°37' E 135°26'0 0.0
2014-Nov-20 01:16N 34°37' E 135°26'0 0.0
2014-Nov-20 00:28N 34°37' E 135°26'0 0.0
2014-Nov-19 23:28N 34°37' E 135°26'0 0.0
2014-Nov-19 22:10N 34°37' E 135°26'0 0.0
2014-Nov-19 21:16N 34°37' E 135°26'5 7.7
2014-Nov-19 20:33N 34°36' E 135°19'1717.5
2014-Nov-19 19:33N 34°37' E 134°58'1 0.0
2014-Nov-18 14:33N 34°38' E 134°59'1716.7
2014-Nov-18 13:33N 34°37' E 135°19'5 2.4
2014-Nov-18 11:18N 34°37' E 135°26'0 0.0
2014-Nov-18 10:30N 34°37' E 135°26'0 0.0
2014-Nov-18 07:24N 34°37' E 135°26'0 0.0
2014-Nov-18 06:30N 34°37' E 135°26'0 0.0
2014-Nov-18 05:30N 34°37' E 135°26'0 0.0
2014-Nov-18 04:30N 34°37' E 135°26'0 0.0
2014-Nov-18 03:30N 34°37' E 135°26'0 0.0
2014-Nov-18 02:30N 34°37' E 135°26'0 0.0
2014-Nov-18 01:30N 34°37' E 135°26'0 0.0
2014-Nov-18 00:30N 34°37' E 135°26'0 0.0
2014-Nov-17 23:24N 34°37' E 135°26'0 0.0
2014-Nov-17 22:24N 34°37' E 135°26'0 0.0
2014-Nov-17 21:30N 34°37' E 135°26'8 8.0
2014-Nov-17 20:33N 34°36' E 135°17'1717.5
2014-Nov-17 19:33N 34°36' E 134°56'2 0.1
2014-Nov-16 14:33N 34°37' E 134°58'1717.4
2014-Nov-16 13:33N 34°36' E 135°19'6 5.6
2014-Nov-16 12:30N 34°37' E 135°26'0 0.0
2014-Nov-16 11:30N 34°37' E 135°26'0 0.0
2014-Nov-16 10:30N 34°37' E 135°26'0 0.0
2014-Nov-16 09:30N 34°37' E 135°26'0 0.0
2014-Nov-16 08:24N 34°37' E 135°26'  

Dump ship's entire track history